createdAt,value
2022-12-13T00:00:53.645Z,1001.87
2022-12-13T00:03:26.585Z,1001.86
2022-12-13T00:05:59.664Z,1001.84
2022-12-13T00:08:32.688Z,1001.83
2022-12-13T00:11:05.660Z,1001.81
2022-12-13T00:13:38.626Z,1001.77
2022-12-13T00:16:11.651Z,1001.73
2022-12-13T00:18:44.584Z,1001.69
2022-12-13T00:21:17.577Z,1001.66
2022-12-13T00:23:50.611Z,1001.64
2022-12-13T00:26:23.715Z,1001.61
2022-12-13T00:28:56.711Z,1001.60
2022-12-13T00:34:02.661Z,1001.55
2022-12-13T00:36:35.615Z,1001.53
2022-12-13T00:39:08.565Z,1001.51
2022-12-13T00:41:41.610Z,1001.47
2022-12-13T00:44:14.665Z,1001.43
2022-12-13T00:46:47.647Z,1001.42
2022-12-13T00:49:20.784Z,1001.39
2022-12-13T00:51:53.438Z,1001.38
2022-12-13T00:54:26.622Z,1001.34
2022-12-13T00:56:59.651Z,1001.32
2022-12-13T00:59:32.514Z,1001.30
2022-12-13T01:02:05.776Z,1001.29
2022-12-13T01:04:38.674Z,1001.26
2022-12-13T01:07:11.680Z,1001.24
2022-12-13T01:09:44.675Z,1001.24
2022-12-13T01:12:17.699Z,1001.22
2022-12-13T01:14:55.912Z,1001.24
2022-12-13T01:17:24.809Z,1001.24
2022-12-13T01:19:57.919Z,1001.23
2022-12-13T01:22:31.761Z,1001.24
2022-12-13T01:25:04.801Z,1001.26
2022-12-13T01:27:37.747Z,1001.27
2022-12-13T01:30:10.773Z,1001.28
2022-12-13T01:32:43.557Z,1001.30
2022-12-13T01:35:16.977Z,1001.32
2022-12-13T01:37:49.751Z,1001.33
2022-12-13T01:40:22.684Z,1001.34
2022-12-13T01:42:55.810Z,1001.34
2022-12-13T01:45:28.453Z,1001.33
2022-12-13T01:48:01.815Z,1001.32
2022-12-13T01:50:35.015Z,1001.31
2022-12-13T01:53:08.840Z,1001.31
2022-12-13T01:55:42.127Z,1001.31
2022-12-13T01:58:14.853Z,1001.30
2022-12-13T02:00:47.880Z,1001.30
2022-12-13T02:03:21.953Z,1001.29
2022-12-13T02:05:53.868Z,1001.27
2022-12-13T02:08:26.906Z,1001.24
2022-12-13T02:10:59.881Z,1001.22
2022-12-13T02:13:32.858Z,1001.21
2022-12-13T02:16:06.008Z,1001.20
2022-12-13T02:18:38.820Z,1001.18
2022-12-13T02:21:11.809Z,1001.19
2022-12-13T02:23:44.845Z,1001.18
2022-12-13T02:26:17.804Z,1001.17
2022-12-13T02:28:50.848Z,1001.16
2022-12-13T02:31:23.996Z,1001.15
2022-12-13T02:33:56.785Z,1001.14
2022-12-13T02:36:36.129Z,1001.14
2022-12-13T02:39:02.922Z,1001.12
2022-12-13T02:41:35.979Z,1001.11
2022-12-13T02:44:22.477Z,1001.10
2022-12-13T02:46:41.992Z,1001.07
2022-12-13T02:49:14.823Z,1001.06
2022-12-13T02:51:47.864Z,1001.04
2022-12-13T02:54:20.929Z,1001.04
2022-12-13T02:56:53.900Z,1001.02
2022-12-13T02:59:26.956Z,1001.02
2022-12-13T03:02:09.473Z,1001.02
2022-12-13T03:04:32.866Z,1001.01
2022-12-13T03:07:05.971Z,1001.01
2022-12-13T03:09:38.580Z,1001.01
2022-12-13T03:12:11.900Z,1001.01
2022-12-13T03:14:44.942Z,1000.98
2022-12-13T03:17:17.890Z,1000.96
2022-12-13T03:19:50.908Z,1000.94
2022-12-13T03:22:23.990Z,1000.92
2022-12-13T03:24:56.964Z,1000.91
2022-12-13T03:27:29.865Z,1000.91
2022-12-13T03:30:02.837Z,1000.90
2022-12-13T03:32:35.912Z,1000.89
2022-12-13T03:35:22.194Z,1000.89
2022-12-13T03:37:42.880Z,1000.88
2022-12-13T03:40:15.885Z,1000.86
2022-12-13T03:42:51.938Z,1000.83
2022-12-13T03:45:25.027Z,1000.83
2022-12-13T03:47:58.008Z,1000.80
2022-12-13T03:50:30.902Z,1000.79
2022-12-13T03:53:04.001Z,1000.78
2022-12-13T03:55:36.922Z,1000.78
2022-12-13T03:58:09.906Z,1000.79
2022-12-13T04:00:42.742Z,1000.79
2022-12-13T04:03:16.099Z,1000.80
2022-12-13T04:05:48.938Z,1000.79
2022-12-13T04:08:22.748Z,1000.79
2022-12-13T04:10:55.005Z,1000.81
2022-12-13T04:13:27.986Z,1000.80
2022-12-13T04:16:01.097Z,1000.81
2022-12-13T04:18:34.009Z,1000.81
2022-12-13T04:21:06.955Z,1000.80
2022-12-13T04:23:40.077Z,1000.78
2022-12-13T04:26:12.960Z,1000.75
2022-12-13T04:28:49.503Z,1000.72
2022-12-13T04:31:19.159Z,1000.72
2022-12-13T04:33:52.029Z,1000.72
2022-12-13T04:36:31.486Z,1000.71
2022-12-13T04:38:57.732Z,1000.72
2022-12-13T04:41:34.096Z,1000.72
2022-12-13T04:44:03.997Z,1000.74
2022-12-13T04:46:37.097Z,1000.75
2022-12-13T04:49:10.038Z,1000.76
2022-12-13T04:51:43.067Z,1000.76
2022-12-13T04:54:24.567Z,1000.77
2022-12-13T04:56:49.825Z,1000.77
2022-12-13T04:59:22.967Z,1000.77
2022-12-13T05:01:57.762Z,1000.76
2022-12-13T05:04:33.140Z,1000.76
2022-12-13T05:07:04.084Z,1000.73
2022-12-13T05:09:37.146Z,1000.71
2022-12-13T05:12:22.075Z,1000.67
2022-12-13T05:14:42.893Z,1000.65
2022-12-13T05:17:16.023Z,1000.65
2022-12-13T05:19:49.068Z,1000.65
2022-12-13T05:22:22.115Z,1000.67
2022-12-13T05:24:55.078Z,1000.67
2022-12-13T05:27:28.167Z,1000.67
2022-12-13T05:30:03.961Z,1000.69
2022-12-13T05:32:42.814Z,1000.72
2022-12-13T05:35:07.109Z,1000.71
2022-12-13T05:37:40.176Z,1000.70
2022-12-13T05:40:13.098Z,1000.68
2022-12-13T05:42:46.223Z,1000.67
2022-12-13T05:45:19.219Z,1000.66
2022-12-13T05:47:52.199Z,1000.66
2022-12-13T05:50:25.219Z,1000.66
2022-12-13T05:52:57.817Z,1000.66
2022-12-13T05:55:31.143Z,1000.66
2022-12-13T05:58:04.156Z,1000.64
2022-12-13T06:00:37.040Z,1000.59
2022-12-13T06:03:10.386Z,1000.55
2022-12-13T06:05:43.255Z,1000.51
2022-12-13T06:08:23.900Z,1000.51
2022-12-13T06:10:49.042Z,1000.51
2022-12-13T06:13:32.025Z,1000.53
2022-12-13T06:16:01.601Z,1000.54
2022-12-13T06:18:28.096Z,1000.55
2022-12-13T06:21:01.255Z,1000.58
2022-12-13T06:23:34.006Z,1000.60
2022-12-13T06:26:07.237Z,1000.63
2022-12-13T06:28:40.151Z,1000.62
2022-12-13T06:31:13.209Z,1000.63
2022-12-13T06:33:49.767Z,1000.63
2022-12-13T06:36:23.309Z,1000.63
2022-12-13T06:38:56.141Z,1000.61
2022-12-13T06:41:32.242Z,1000.60
2022-12-13T06:44:02.275Z,1000.59
2022-12-13T06:46:35.322Z,1000.56
2022-12-13T06:49:08.207Z,1000.55
2022-12-13T06:51:41.335Z,1000.52
2022-12-13T06:54:14.211Z,1000.52
2022-12-13T06:56:47.329Z,1000.51
2022-12-13T06:59:20.275Z,1000.54
2022-12-13T07:01:53.331Z,1000.54
2022-12-13T07:04:30.201Z,1000.55
2022-12-13T07:07:01.378Z,1000.55
2022-12-13T07:09:32.234Z,1000.55
2022-12-13T07:12:05.579Z,1000.54
2022-12-13T07:14:40.895Z,1000.54
2022-12-13T07:17:11.186Z,1000.56
2022-12-13T07:19:44.798Z,1000.56
2022-12-13T07:22:17.200Z,1000.57
2022-12-13T07:24:50.226Z,1000.59
2022-12-13T07:27:23.360Z,1000.60
2022-12-13T07:29:56.236Z,1000.60
2022-12-13T07:32:29.316Z,1000.61
2022-12-13T07:35:02.281Z,1000.63
2022-12-13T07:37:35.078Z,1000.66
2022-12-13T07:40:08.319Z,1000.68
2022-12-13T07:42:41.371Z,1000.71
2022-12-13T07:45:14.413Z,1000.74
2022-12-13T07:47:47.187Z,1000.76
2022-12-13T07:50:25.218Z,1000.78
2022-12-13T07:52:53.295Z,1000.80
2022-12-13T07:55:33.600Z,1000.81
2022-12-13T07:57:59.417Z,1000.82
2022-12-13T08:00:33.095Z,1000.82
2022-12-13T08:03:05.320Z,1000.79
2022-12-13T08:05:39.427Z,1000.77
2022-12-13T08:08:11.478Z,1000.80
2022-12-13T08:10:44.237Z,1000.81
2022-12-13T08:13:17.388Z,1000.85
2022-12-13T08:15:50.412Z,1000.87
2022-12-13T08:18:23.534Z,1000.90
2022-12-13T08:20:57.408Z,1000.95
2022-12-13T08:23:30.621Z,1000.97
2022-12-13T08:26:03.417Z,1000.98
2022-12-13T08:28:36.454Z,1001.00
2022-12-13T08:31:09.561Z,1001.02
2022-12-13T08:33:42.438Z,1001.01
2022-12-13T08:36:15.388Z,1001.00
2022-12-13T08:38:48.359Z,1000.99
2022-12-13T08:41:21.374Z,1000.98
2022-12-13T08:43:54.535Z,1001.00
2022-12-13T08:46:28.433Z,1001.00
2022-12-13T08:49:01.435Z,1001.00
2022-12-13T08:51:35.795Z,1001.02
2022-12-13T08:54:10.485Z,1001.02
2022-12-13T08:56:43.714Z,1001.02
2022-12-13T08:59:16.067Z,1001.03
2022-12-13T09:01:46.512Z,1001.02
2022-12-13T09:04:19.406Z,1001.03
2022-12-13T09:06:52.446Z,1001.04
2022-12-13T09:09:25.431Z,1001.06
2022-12-13T09:11:59.660Z,1001.04
2022-12-13T09:14:34.020Z,1001.04
2022-12-13T09:17:04.629Z,1001.05
2022-12-13T09:19:37.808Z,1001.07
2022-12-13T09:22:14.769Z,1001.06
2022-12-13T09:24:43.530Z,1001.05
2022-12-13T09:27:27.560Z,1001.05
2022-12-13T09:29:49.558Z,1001.07
2022-12-13T09:32:22.509Z,1001.09
2022-12-13T09:34:55.557Z,1001.11
2022-12-13T09:37:28.470Z,1001.12
2022-12-13T09:40:15.615Z,1001.11
2022-12-13T09:42:34.549Z,1001.11
2022-12-13T09:45:22.799Z,1001.11
2022-12-13T09:47:46.894Z,1001.11
2022-12-13T09:50:14.771Z,1001.11
2022-12-13T09:52:46.519Z,1001.12
2022-12-13T09:55:19.596Z,1001.15
2022-12-13T09:57:52.608Z,1001.14
2022-12-13T10:00:25.506Z,1001.13
2022-12-13T10:02:58.492Z,1001.12
2022-12-13T10:05:34.089Z,1001.10
2022-12-13T10:08:04.572Z,1001.09
2022-12-13T10:10:37.585Z,1001.07
2022-12-13T10:13:10.510Z,1001.03
2022-12-13T10:15:43.537Z,1001.00
2022-12-13T10:18:16.525Z,1000.95
2022-12-13T10:20:49.584Z,1000.90
2022-12-13T10:23:38.634Z,1000.88
2022-12-13T10:26:03.150Z,1000.86
2022-12-13T10:28:28.629Z,1000.84
2022-12-13T10:31:01.243Z,1000.83
2022-12-13T10:33:34.426Z,1000.82
2022-12-13T10:36:07.578Z,1000.80
2022-12-13T10:38:40.647Z,1000.77
2022-12-13T10:41:13.542Z,1000.73
2022-12-13T10:43:46.562Z,1000.70
2022-12-13T10:46:25.209Z,1000.67
2022-12-13T10:48:52.579Z,1000.61
2022-12-13T10:51:25.720Z,1000.58
2022-12-13T10:53:58.608Z,1000.55
2022-12-13T10:56:45.653Z,1000.54
2022-12-13T10:59:18.578Z,1000.51
2022-12-13T11:01:51.679Z,1000.51
2022-12-13T11:04:27.973Z,1000.51
2022-12-13T11:06:57.706Z,1000.52
2022-12-13T11:09:39.122Z,1000.51
2022-12-13T11:12:03.573Z,1000.49
2022-12-13T11:14:43.233Z,1000.47
2022-12-13T11:17:09.508Z,1000.43
2022-12-13T11:19:42.653Z,1000.38
2022-12-13T11:22:15.700Z,1000.35
2022-12-13T11:24:48.473Z,1000.32
2022-12-13T11:27:21.412Z,1000.31
2022-12-13T11:29:54.638Z,1000.29
2022-12-13T11:32:27.723Z,1000.26
2022-12-13T11:35:00.742Z,1000.22
2022-12-13T11:37:33.529Z,1000.17
2022-12-13T11:40:06.736Z,1000.16
2022-12-13T11:42:39.768Z,1000.11
2022-12-13T11:45:13.256Z,1000.08
2022-12-13T11:47:45.506Z,1000.07
2022-12-13T11:50:33.836Z,1000.06
2022-12-13T11:52:51.694Z,1000.04
2022-12-13T11:55:24.679Z,1000.00
2022-12-13T11:57:57.674Z,999.96
2022-12-13T12:00:33.858Z,999.91
2022-12-13T12:03:03.882Z,999.87
2022-12-13T12:05:36.444Z,999.83
2022-12-13T12:10:49.839Z,999.79
2022-12-13T12:13:18.686Z,999.75
2022-12-13T12:15:55.186Z,999.74
2022-12-13T12:18:25.226Z,999.73
2022-12-13T12:20:57.699Z,999.69
2022-12-13T12:23:30.708Z,999.65
2022-12-13T12:26:03.702Z,999.60
2022-12-13T12:28:36.810Z,999.58
2022-12-13T12:31:09.821Z,999.57
2022-12-13T12:33:42.812Z,999.57
2022-12-13T12:36:15.803Z,999.57
2022-12-13T12:38:48.867Z,999.55
2022-12-13T12:41:21.830Z,999.52
2022-12-13T12:43:54.868Z,999.48
2022-12-13T12:46:27.749Z,999.47
2022-12-13T12:49:02.640Z,999.47
2022-12-13T12:51:33.643Z,999.46
2022-12-13T12:54:06.829Z,999.45
2022-12-13T12:56:39.684Z,999.46
2022-12-13T12:59:12.621Z,999.47
2022-12-13T13:01:46.010Z,999.49
2022-12-13T13:04:22.895Z,999.50
2022-12-13T13:06:51.890Z,999.50
2022-12-13T13:09:24.953Z,999.49
2022-12-13T13:11:58.025Z,999.47
2022-12-13T13:14:30.582Z,999.45
2022-12-13T13:17:03.861Z,999.43
2022-12-13T13:19:36.712Z,999.43
2022-12-13T13:22:30.382Z,999.42
2022-12-13T13:24:42.938Z,999.41
2022-12-13T13:27:15.896Z,999.39
2022-12-13T13:29:48.913Z,999.38
2022-12-13T13:32:29.499Z,999.35
2022-12-13T13:34:55.818Z,999.34
2022-12-13T13:37:28.914Z,999.34
2022-12-13T13:40:01.967Z,999.31
2022-12-13T13:42:34.844Z,999.27
2022-12-13T13:45:07.945Z,999.24
2022-12-13T13:47:40.849Z,999.24
2022-12-13T13:50:13.839Z,999.24
2022-12-13T13:52:46.864Z,999.24
2022-12-13T13:55:20.029Z,999.23
2022-12-13T13:58:10.093Z,999.21
2022-12-13T14:00:25.968Z,999.16
2022-12-13T14:02:59.016Z,999.14
2022-12-13T14:05:31.883Z,999.11
2022-12-13T14:08:04.955Z,999.09
2022-12-13T14:10:37.771Z,999.08
2022-12-13T14:13:11.056Z,999.08
2022-12-13T14:15:49.651Z,999.10
2022-12-13T14:18:21.199Z,999.13
2022-12-13T14:20:51.033Z,999.14
2022-12-13T14:23:24.513Z,999.15
2022-12-13T14:25:56.936Z,999.17
2022-12-13T14:28:30.228Z,999.20
2022-12-13T14:31:03.103Z,999.23
2022-12-13T14:33:36.022Z,999.26
2022-12-13T14:36:08.958Z,999.27
2022-12-13T14:38:41.926Z,999.25
2022-12-13T14:41:14.932Z,999.24
2022-12-13T14:43:50.200Z,999.24
2022-12-13T14:46:21.096Z,999.24
2022-12-13T14:48:54.048Z,999.23
2022-12-13T14:51:26.983Z,999.20
2022-12-13T14:53:59.983Z,999.16
2022-12-13T14:56:33.085Z,999.14
2022-12-13T14:59:05.960Z,999.13
2022-12-13T15:01:38.951Z,999.15
2022-12-13T15:04:12.139Z,999.14
2022-12-13T15:06:48.395Z,999.12
2022-12-13T15:09:18.083Z,999.08
2022-12-13T15:11:53.838Z,999.05
2022-12-13T15:14:26.687Z,999.00
2022-12-13T15:16:59.881Z,998.98
2022-12-13T15:19:37.569Z,998.96
2022-12-13T15:22:05.718Z,998.94
2022-12-13T15:24:38.791Z,998.93
2022-12-13T15:27:11.873Z,998.90
2022-12-13T15:29:44.973Z,998.88
2022-12-13T15:32:17.876Z,998.86
2022-12-13T15:34:51.036Z,998.83
2022-12-13T15:37:29.106Z,998.78
2022-12-13T15:39:56.803Z,998.74
2022-12-13T15:42:30.152Z,998.68
2022-12-13T15:45:03.043Z,998.63
2022-12-13T15:47:35.983Z,998.59
2022-12-13T15:50:08.789Z,998.56
2022-12-13T15:52:41.788Z,998.53
2022-12-13T15:55:14.813Z,998.49
2022-12-13T15:57:47.957Z,998.47
2022-12-13T16:00:29.371Z,998.45
2022-12-13T16:02:53.933Z,998.45
2022-12-13T16:05:26.872Z,998.44
2022-12-13T16:07:59.971Z,998.43
2022-12-13T16:10:33.125Z,998.40
2022-12-13T16:13:07.993Z,998.37
2022-12-13T16:15:38.808Z,998.35
2022-12-13T16:18:12.196Z,998.35
2022-12-13T16:20:45.069Z,998.35
2022-12-13T16:23:27.028Z,998.31
2022-12-13T16:25:50.926Z,998.29
2022-12-13T16:28:25.924Z,998.25
2022-12-13T16:30:57.122Z,998.24
2022-12-13T16:33:30.406Z,998.24
2022-12-13T16:36:02.871Z,998.23
2022-12-13T16:38:35.962Z,998.22
2022-12-13T16:41:09.447Z,998.23
2022-12-13T16:43:41.873Z,998.23
2022-12-13T16:47:14.733Z,998.22
2022-12-13T16:48:48.004Z,998.24
2022-12-13T16:51:20.998Z,998.25
2022-12-13T16:53:53.884Z,998.29
2022-12-13T16:56:26.863Z,998.31
2022-12-13T16:59:00.089Z,998.31
2022-12-13T17:01:33.015Z,998.29
2022-12-13T17:04:12.705Z,998.27
2022-12-13T17:06:39.003Z,998.24
2022-12-13T17:09:11.888Z,998.21
2022-12-13T17:11:44.878Z,998.19
2022-12-13T17:14:17.895Z,998.16
2022-12-13T17:16:50.941Z,998.13
2022-12-13T17:19:23.918Z,998.12
2022-12-13T17:21:56.916Z,998.09
2022-12-13T17:24:32.867Z,998.06
2022-12-13T17:27:06.073Z,998.08
2022-12-13T17:29:39.054Z,998.10
2022-12-13T17:32:11.998Z,998.13
2022-12-13T17:34:45.114Z,998.15
2022-12-13T17:37:17.950Z,998.14
2022-12-13T17:39:50.991Z,998.14
2022-12-13T17:42:24.080Z,998.15
2022-12-13T17:44:57.141Z,998.15
2022-12-13T17:47:30.157Z,998.15
2022-12-13T17:50:02.986Z,998.15
2022-12-13T17:52:36.114Z,998.13
2022-12-13T17:55:12.346Z,998.13
2022-12-13T17:57:42.278Z,998.11
2022-12-13T18:00:15.279Z,998.07
2022-12-13T18:02:55.744Z,998.04
2022-12-13T18:05:21.123Z,998.03
2022-12-13T18:07:54.044Z,998.02
2022-12-13T18:10:30.125Z,998.01
2022-12-13T18:13:00.074Z,998.00
2022-12-13T18:15:33.200Z,997.98
2022-12-13T18:18:13.138Z,997.92
2022-12-13T18:20:42.005Z,997.89
2022-12-13T18:23:14.984Z,997.84
2022-12-13T18:25:48.307Z,997.80
2022-12-13T18:28:21.248Z,997.76
2022-12-13T18:30:54.353Z,997.72
2022-12-13T18:33:27.542Z,997.68
2022-12-13T18:36:00.043Z,997.63
2022-12-13T18:38:36.898Z,997.60
2022-12-13T18:41:06.029Z,997.57
2022-12-13T18:43:39.199Z,997.54
2022-12-13T18:46:12.201Z,997.52
2022-12-13T18:48:45.072Z,997.53
2022-12-13T18:51:18.039Z,997.57
2022-12-13T18:53:51.029Z,997.58
2022-12-13T18:56:24.341Z,997.59
2022-12-13T18:58:57.026Z,997.61
2022-12-13T19:01:30.654Z,997.57
2022-12-13T19:04:03.241Z,997.54
2022-12-13T19:06:36.152Z,997.53
2022-12-13T19:09:09.066Z,997.48
2022-12-13T19:11:42.166Z,997.48
2022-12-13T19:14:15.055Z,997.49
2022-12-13T19:16:48.078Z,997.45
2022-12-13T19:19:21.145Z,997.47
2022-12-13T19:21:54.068Z,997.45
2022-12-13T19:24:27.259Z,997.43
2022-12-13T19:27:00.215Z,997.43
2022-12-13T19:29:33.112Z,997.41
2022-12-13T19:32:06.124Z,997.38
2022-12-13T19:34:39.166Z,997.37
2022-12-13T19:37:12.140Z,997.35
2022-12-13T19:39:45.296Z,997.33
2022-12-13T19:42:18.362Z,997.30
2022-12-13T19:44:51.222Z,997.26
2022-12-13T19:47:24.510Z,997.22
2022-12-13T19:49:57.377Z,997.18
2022-12-13T19:52:30.494Z,997.11
2022-12-13T19:55:03.441Z,997.05
2022-12-13T19:57:36.166Z,997.00
2022-12-13T20:00:09.331Z,997.00
2022-12-13T20:02:42.391Z,996.96
2022-12-13T20:05:15.415Z,996.94
2022-12-13T20:07:48.535Z,996.93
2022-12-13T20:10:21.320Z,996.93
2022-12-13T20:12:54.192Z,996.92
2022-12-13T20:15:27.306Z,996.92
2022-12-13T20:18:00.242Z,996.90
2022-12-13T20:21:02.386Z,996.91
2022-12-13T20:23:06.182Z,996.89
2022-12-13T20:25:39.813Z,996.88
2022-12-13T20:28:16.359Z,996.88
2022-12-13T20:30:47.050Z,996.87
2022-12-13T20:33:19.573Z,996.85
2022-12-13T20:36:22.421Z,996.81
2022-12-13T20:38:25.379Z,996.77
2022-12-13T20:40:58.340Z,996.75
2022-12-13T20:43:31.332Z,996.68
2022-12-13T20:46:04.332Z,996.61
2022-12-13T20:48:37.417Z,996.59
2022-12-13T20:51:10.403Z,996.58
2022-12-13T20:53:43.598Z,996.56
2022-12-13T20:56:16.486Z,996.54
2022-12-13T20:58:49.394Z,996.50
2022-12-13T21:01:22.571Z,996.44
2022-12-13T21:03:55.657Z,996.38
2022-12-13T21:06:28.490Z,996.32
2022-12-13T21:09:01.520Z,996.28
2022-12-13T21:11:34.672Z,996.24
2022-12-13T21:14:13.477Z,996.22
2022-12-13T21:16:41.341Z,996.19
2022-12-13T21:19:14.579Z,996.17
2022-12-13T21:21:47.396Z,996.17
2022-12-13T21:24:20.642Z,996.17
2022-12-13T21:26:53.560Z,996.17
2022-12-13T21:29:26.897Z,996.15
2022-12-13T21:32:00.599Z,996.14
2022-12-13T21:34:33.578Z,996.10
2022-12-13T21:37:06.608Z,996.08
2022-12-13T21:39:39.262Z,996.07
2022-12-13T21:42:12.547Z,996.03
2022-12-13T21:44:45.685Z,995.98
2022-12-13T21:47:18.556Z,995.94
2022-12-13T21:49:51.720Z,995.91
2022-12-13T21:52:24.561Z,995.87
2022-12-13T21:55:15.170Z,995.84
2022-12-13T21:57:30.677Z,995.82
2022-12-13T22:00:03.313Z,995.79
2022-12-13T22:02:36.830Z,995.75
2022-12-13T22:05:09.603Z,995.67
2022-12-13T22:07:42.630Z,995.60
2022-12-13T22:10:15.703Z,995.51
2022-12-13T22:12:48.626Z,995.43
2022-12-13T22:15:21.741Z,995.37
2022-12-13T22:17:54.742Z,995.33
2022-12-13T22:20:27.816Z,995.27
2022-12-13T22:23:00.642Z,995.21
2022-12-13T22:25:33.735Z,995.17
2022-12-13T22:28:06.726Z,995.11
2022-12-13T22:30:39.579Z,995.07
2022-12-13T22:33:12.643Z,995.00
2022-12-13T22:35:45.778Z,994.93
2022-12-13T22:38:18.674Z,994.88
2022-12-13T22:40:51.646Z,994.84
2022-12-13T22:43:24.715Z,994.80
2022-12-13T22:45:57.810Z,994.77
2022-12-13T22:48:30.691Z,994.73
2022-12-13T22:51:03.676Z,994.70
2022-12-13T22:53:36.692Z,994.68
2022-12-13T22:56:09.764Z,994.69
2022-12-13T22:58:42.702Z,994.70
2022-12-13T23:01:15.773Z,994.72
2022-12-13T23:03:48.813Z,994.72
2022-12-13T23:06:21.829Z,994.72
2022-12-13T23:08:54.689Z,994.72
2022-12-13T23:11:27.791Z,994.72
2022-12-13T23:14:00.738Z,994.70
2022-12-13T23:16:33.874Z,994.67
2022-12-13T23:19:39.664Z,994.66
2022-12-13T23:21:39.592Z,994.68
2022-12-13T23:24:12.696Z,994.69
2022-12-13T23:26:45.812Z,994.69
2022-12-13T23:29:18.821Z,994.67
2022-12-13T23:31:51.731Z,994.65
2022-12-13T23:34:24.837Z,994.62
2022-12-13T23:36:57.886Z,994.60
2022-12-13T23:39:30.746Z,994.59
2022-12-13T23:42:03.820Z,994.56
2022-12-13T23:44:36.852Z,994.54
2022-12-13T23:47:09.874Z,994.52
2022-12-13T23:49:42.875Z,994.53
2022-12-13T23:52:15.939Z,994.52
2022-12-13T23:54:48.878Z,994.52
2022-12-13T23:57:21.866Z,994.53
2022-12-13T23:59:54.875Z,994.51
